Time;durP1;ratioP1;P1;durP2;ratioP2;P2;SDS_P1;SDS_P2;PMS_P1;PMS_P2;Temp;Humidity;BMP_temperature;BMP_pressure;BME280_temperature;BME280_humidity;BME280_pressure;Samples;Min_cycle;Max_cycle;Signal;HPM_P1;HPM_P2
2022/07/12 00:04:56;;;;;;;5.65;4.53;;;;;;;;;;10313371;28;20129;-74
2022/07/12 00:09:56;;;;;;;10.77;3.47;;;;;;;;;;10313429;28;20034;-74
2022/07/12 00:14:57;;;;;;;5.83;4.23;;;;;;;;;;10313156;28;20030;-76
2022/07/12 00:19:57;;;;;;;5.35;4.03;;;;;;;;;;10313040;28;20026;-74
2022/07/12 00:24:57;;;;;;;4.53;4.05;;;;;;;;;;10312890;28;20034;-75
2022/07/12 00:29:57;;;;;;;7.78;4.47;;;;;;;;;;10312689;28;20117;-74
2022/07/12 00:34:58;;;;;;;6.57;4.00;;;;;;;;;;10330426;28;20089;-74
2022/07/12 00:39:59;;;;;;;11.32;4.40;;;;;;;;;;10313292;28;20027;-75
2022/07/12 00:44:59;;;;;;;7.80;4.57;;;;;;;;;;10313116;28;20062;-74
2022/07/12 00:49:59;;;;;;;7.00;4.50;;;;;;;;;;10313305;28;20137;-74
2022/07/12 00:55:00;;;;;;;6.78;4.95;;;;;;;;;;10312575;28;20038;-74
2022/07/12 01:00:00;;;;;;;8.90;4.82;;;;;;;;;;10312510;28;20047;-74
2022/07/12 01:05:02;;;;;;;5.10;4.60;;;;;;;;;;10312587;28;20039;-75
2022/07/12 01:10:03;;;;;;;5.57;4.93;;;;;;;;;;10318747;28;20327;-75
2022/07/12 01:15:08;;;;;;;5.35;4.80;;;;;;;;;;10319771;28;20065;-75
2022/07/12 01:20:08;;;;;;;7.05;4.15;;;;;;;;;;10319466;28;20023;-77
2022/07/12 01:25:09;;;;;;;5.10;3.60;;;;;;;;;;10319541;28;20037;-75
2022/07/12 01:30:10;;;;;;;3.67;3.38;;;;;;;;;;10319057;28;20117;-75
2022/07/12 01:35:10;;;;;;;4.65;3.17;;;;;;;;;;10319081;28;20582;-75
2022/07/12 01:40:11;;;;;;;4.45;3.58;;;;;;;;;;10318843;28;20089;-75
2022/07/12 01:45:12;;;;;;;4.93;2.97;;;;;;;;;;10318642;28;20385;-75
2022/07/12 01:50:12;;;;;;;5.20;3.15;;;;;;;;;;10336062;28;20038;-74
2022/07/12 01:55:13;;;;;;;2.83;2.63;;;;;;;;;;10318416;28;20192;-75
2022/07/12 02:00:14;;;;;;;3.77;2.73;;;;;;;;;;10336025;28;20512;-72
2022/07/12 02:05:14;;;;;;;3.10;2.80;;;;;;;;;;10318146;28;20516;-74
2022/07/12 02:10:15;;;;;;;5.22;3.00;;;;;;;;;;10318379;28;20125;-75
2022/07/12 02:15:15;;;;;;;6.18;3.15;;;;;;;;;;10317971;28;20097;-74
2022/07/12 02:20:15;;;;;;;6.80;2.92;;;;;;;;;;10333752;28;20030;-74
2022/07/12 02:25:16;;;;;;;3.70;3.40;;;;;;;;;;10317580;28;20022;-74
2022/07/12 02:30:16;;;;;;;3.90;2.63;;;;;;;;;;10317054;28;20026;-74
2022/07/12 02:35:16;;;;;;;4.23;3.07;;;;;;;;;;10316851;28;20489;-75
2022/07/12 02:45:35;;;;;;;;;;;;;;;;;;10335047;28;20420;-75
2022/07/12 02:50:37;;;;;;;3.90;3.00;;;;;;;;;;10316653;28;19906;-75
2022/07/12 02:55:37;;;;;;;3.92;2.80;;;;;;;;;;10315862;28;20471;-74
2022/07/12 03:00:38;;;;;;;5.20;3.47;;;;;;;;;;10315774;28;20034;-74
2022/07/12 03:05:39;;;;;;;6.50;3.25;;;;;;;;;;10315639;28;20034;-74
2022/07/12 03:10:39;;;;;;;5.03;3.10;;;;;;;;;;10315553;28;20353;-74
2022/07/12 03:15:40;;;;;;;3.80;2.67;;;;;;;;;;10332983;28;20042;-76
2022/07/12 03:20:40;;;;;;;3.90;3.40;;;;;;;;;;10314913;28;20022;-74
2022/07/12 03:25:40;;;;;;;5.22;3.15;;;;;;;;;;10314784;28;20265;-74
2022/07/12 03:30:41;;;;;;;10.40;2.90;;;;;;;;;;10314383;28;20026;-74
2022/07/12 03:35:41;;;;;;;2.92;2.70;;;;;;;;;;10314246;28;20487;-74
2022/07/12 03:40:41;;;;;;;4.10;2.90;;;;;;;;;;10314340;28;20084;-76
2022/07/12 03:45:43;;;;;;;4.68;2.78;;;;;;;;;;10314993;28;20034;-74
2022/07/12 03:50:43;;;;;;;6.50;2.97;;;;;;;;;;10313827;28;20026;-75
2022/07/12 03:55:43;;;;;;;3.13;2.40;;;;;;;;;;10331035;28;20034;-75
2022/07/12 04:00:43;;;;;;;4.53;2.83;;;;;;;;;;10314024;28;20229;-76
2022/07/12 04:05:44;;;;;;;7.43;3.23;;;;;;;;;;10313571;28;20034;-76
2022/07/12 04:10:44;;;;;;;3.08;2.78;;;;;;;;;;10330843;28;20100;-75
2022/07/12 04:15:44;;;;;;;6.93;3.28;;;;;;;;;;10313025;28;20070;-75
2022/07/12 04:20:44;;;;;;;8.33;3.27;;;;;;;;;;10313125;28;20030;-76
2022/07/12 04:25:45;;;;;;;6.20;4.07;;;;;;;;;;10313462;28;20425;-76
2022/07/12 04:30:46;;;;;;;4.80;3.58;;;;;;;;;;10312768;28;20397;-76
2022/07/12 04:35:46;;;;;;;5.22;3.78;;;;;;;;;;10312836;28;20125;-76
2022/07/12 04:40:47;;;;;;;9.68;4.00;;;;;;;;;;10312336;28;20129;-75
2022/07/12 04:45:47;;;;;;;6.93;3.45;;;;;;;;;;10320176;28;20030;-76
2022/07/12 04:50:47;;;;;;;5.05;3.55;;;;;;;;;;10320548;28;20038;-75
2022/07/12 04:55:47;;;;;;;10.32;3.25;;;;;;;;;;10320103;28;20073;-76
2022/07/12 05:00:48;;;;;;;5.85;2.88;;;;;;;;;;10319919;28;20046;-73
2022/07/12 05:05:48;;;;;;;6.00;3.35;;;;;;;;;;10319591;28;20034;-74
2022/07/12 05:10:48;;;;;;;7.38;3.88;;;;;;;;;;10319716;28;20089;-73
2022/07/12 05:15:48;;;;;;;5.65;3.33;;;;;;;;;;10319486;28;20042;-75
2022/07/12 05:20:49;;;;;;;11.40;4.97;;;;;;;;;;10319422;28;20042;-74
2022/07/12 05:25:49;;;;;;;11.32;5.15;;;;;;;;;;10318936;28;20459;-74
2022/07/12 05:30:49;;;;;;;9.15;4.75;;;;;;;;;;10318757;28;20484;-75
2022/07/12 05:35:51;;;;;;;11.82;4.50;;;;;;;;;;10318271;28;20057;-75
2022/07/12 05:40:51;;;;;;;4.88;3.50;;;;;;;;;;10318087;28;20130;-74
2022/07/12 05:45:51;;;;;;;8.97;4.53;;;;;;;;;;10317597;28;20101;-74
2022/07/12 05:50:52;;;;;;;9.15;3.55;;;;;;;;;;10317431;28;20272;-74
2022/07/12 05:55:52;;;;;;;10.40;4.70;;;;;;;;;;10317328;28;20092;-74
2022/07/12 06:00:53;;;;;;;6.93;3.30;;;;;;;;;;10316905;28;20495;-74
2022/07/12 06:05:53;;;;;;;4.32;3.40;;;;;;;;;;10317669;28;20030;-75
2022/07/12 06:10:54;;;;;;;11.98;2.60;;;;;;;;;;10334461;28;20100;-75
2022/07/12 06:15:55;;;;;;;6.95;2.78;;;;;;;;;;10317053;28;20125;-74
2022/07/12 06:20:55;;;;;;;5.88;3.15;;;;;;;;;;10300796;28;20185;-75
2022/07/12 06:25:56;;;;;;;7.18;3.08;;;;;;;;;;10316737;28;20121;-74
2022/07/12 06:30:56;;;;;;;4.82;2.25;;;;;;;;;;10316181;28;20495;-75
2022/07/12 06:35:56;;;;;;;6.32;3.33;;;;;;;;;;10316185;28;20117;-75
2022/07/12 06:40:57;;;;;;;9.02;3.03;;;;;;;;;;10315920;28;20033;-75
2022/07/12 06:45:57;;;;;;;18.02;3.42;;;;;;;;;;10315971;28;20030;-74
2022/07/12 06:50:57;;;;;;;8.30;1.95;;;;;;;;;;10315809;28;20027;-75
2022/07/12 06:55:57;;;;;;;5.55;1.55;;;;;;;;;;10315499;28;20031;-75
2022/07/12 07:00:58;;;;;;;8.45;1.40;;;;;;;;;;10315272;28;20173;-75
2022/07/12 07:05:58;;;;;;;3.30;1.30;;;;;;;;;;10314636;28;20038;-75
2022/07/12 07:10:58;;;;;;;3.00;1.50;;;;;;;;;;10332681;28;20041;-75
2022/07/12 07:15:58;;;;;;;9.90;2.30;;;;;;;;;;10314819;28;20034;-75
2022/07/12 07:20:58;;;;;;;4.18;1.40;;;;;;;;;;10314639;28;20027;-75
2022/07/12 07:25:59;;;;;;;6.72;1.65;;;;;;;;;;10314602;28;20037;-74
2022/07/12 07:31:01;;;;;;;7.28;1.73;;;;;;;;;;10314205;28;20034;-75
2022/07/12 07:36:01;;;;;;;3.55;1.08;;;;;;;;;;10331312;28;20117;-74
2022/07/12 07:41:01;;;;;;;4.75;1.25;;;;;;;;;;10313652;28;20588;-74
2022/07/12 07:46:02;;;;;;;4.60;1.10;;;;;;;;;;10313619;28;20113;-74
2022/07/12 07:51:02;;;;;;;2.77;0.80;;;;;;;;;;10313470;28;20036;-75
2022/07/12 07:56:02;;;;;;;3.92;0.68;;;;;;;;;;10312983;28;20030;-74
2022/07/12 08:01:02;;;;;;;5.90;0.60;;;;;;;;;;10313050;28;20042;-75
2022/07/12 08:06:03;;;;;;;7.13;1.33;;;;;;;;;;10312887;28;20176;-74
2022/07/12 08:11:03;;;;;;;4.95;0.90;;;;;;;;;;10313007;28;20033;-74
2022/07/12 08:16:05;;;;;;;0.97;0.30;;;;;;;;;;10315156;28;20173;-75
2022/07/12 08:21:06;;;;;;;7.25;1.00;;;;;;;;;;10331165;28;20026;-73
2022/07/12 08:26:06;;;;;;;3.20;0.70;;;;;;;;;;10312748;28;20038;-73
2022/07/12 08:31:07;;;;;;;6.28;1.40;;;;;;;;;;10312620;28;20125;-74
2022/07/12 08:36:08;;;;;;;2.33;0.50;;;;;;;;;;10312153;28;20022;-74
2022/07/12 08:41:10;;;;;;;3.10;0.80;;;;;;;;;;10312170;28;20028;-73
2022/07/12 08:46:11;;;;;;;3.63;1.58;;;;;;;;;;10312353;28;20116;-74
2022/07/12 08:51:13;;;;;;;6.15;1.27;;;;;;;;;;10311947;28;20081;-74
2022/07/12 08:56:37;;;;;;;3.80;1.00;;;;;;;;;;10312176;28;20090;-74
2022/07/12 09:01:41;;;;;;;3.33;1.40;;;;;;;;;;10295709;28;20047;-75
2022/07/12 09:06:42;;;;;;;6.72;0.73;;;;;;;;;;10311855;28;20034;-73
2022/07/12 09:11:46;;;;;;;1.77;0.80;;;;;;;;;;10329122;28;20109;-76
2022/07/12 09:17:04;;;;;;;1.17;0.80;;;;;;;;;;10329076;28;20038;-74
2022/07/12 09:22:13;;;;;;;5.32;0.63;;;;;;;;;;10311618;28;20031;-74
2022/07/12 09:27:13;;;;;;;1.33;0.60;;;;;;;;;;10311586;28;20477;-74
2022/07/12 09:37:38;;;;;;;1.02;0.50;;;;;;;;;;10336109;28;20023;-74
2022/07/12 09:42:39;;;;;;;4.60;0.90;;;;;;;;;;10318487;28;20411;-73
2022/07/12 09:47:41;;;;;;;2.78;0.90;;;;;;;;;;10318271;28;20118;-75
2022/07/12 09:52:44;;;;;;;2.53;1.00;;;;;;;;;;10336024;28;20121;-74
2022/07/12 09:57:45;;;;;;;4.13;0.90;;;;;;;;;;10317796;28;20416;-74
2022/07/12 10:02:46;;;;;;;1.60;0.77;;;;;;;;;;10317726;28;20049;-74
2022/07/12 10:07:47;;;;;;;6.90;0.98;;;;;;;;;;10317449;28;20034;-74
2022/07/12 10:12:47;;;;;;;1.75;0.55;;;;;;;;;;10317540;28;20030;-73
2022/07/12 10:17:53;;;;;;;0.73;0.40;;;;;;;;;;10317300;28;20416;-72
2022/07/12 10:22:54;;;;;;;1.73;0.40;;;;;;;;;;10316942;28;20443;-73
2022/07/12 10:27:54;;;;;;;2.38;0.70;;;;;;;;;;10316584;28;20030;-75
2022/07/12 10:32:57;;;;;;;5.68;0.50;;;;;;;;;;10316531;28;20124;-75
2022/07/12 10:38:17;;;;;;;3.03;0.55;;;;;;;;;;10316650;28;20062;-74
2022/07/12 10:44:04;;;;;;;4.68;0.82;;;;;;;;;;10315260;28;20089;-73
2022/07/12 10:48:44;;;;;;;4.97;0.50;;;;;;;;;;10333561;28;20532;-73
2022/07/12 10:53:48;;;;;;;2.77;0.37;;;;;;;;;;10318698;28;20039;-73
2022/07/12 10:58:49;;;;;;;3.65;0.80;;;;;;;;;;10315739;28;20034;-73
2022/07/12 11:03:50;;;;;;;1.52;0.40;;;;;;;;;;10332856;28;20566;-75
2022/07/12 11:08:51;;;;;;;1.02;0.35;;;;;;;;;;10315321;28;20107;-74
2022/07/12 11:13:51;;;;;;;1.48;0.50;;;;;;;;;;10318432;28;20031;-73
2022/07/12 11:18:52;;;;;;;1.65;0.75;;;;;;;;;;10332294;28;20034;-74
2022/07/12 11:23:53;;;;;;;2.95;0.65;;;;;;;;;;10314865;28;20408;-74
2022/07/12 11:28:57;;;;;;;3.20;1.00;;;;;;;;;;10331782;28;20520;-75
2022/07/12 11:33:57;;;;;;;6.00;5.40;;;;;;;;;;10314140;28;20137;-74
2022/07/12 11:38:58;;;;;;;2.78;0.90;;;;;;;;;;10314012;28;20125;-74
2022/07/12 11:43:58;;;;;;;0.95;0.60;;;;;;;;;;10314063;28;20097;-74
2022/07/12 11:48:58;;;;;;;6.07;1.30;;;;;;;;;;10331277;28;20033;-75
2022/07/12 11:53:59;;;;;;;3.15;0.90;;;;;;;;;;10314677;28;20093;-75
2022/07/12 11:58:59;;;;;;;6.20;1.02;;;;;;;;;;10313732;28;20042;-74
2022/07/12 12:03:59;;;;;;;5.03;1.33;;;;;;;;;;10313108;28;20519;-74
2022/07/12 12:09:06;;;;;;;3.60;0.90;;;;;;;;;;10313441;28;20034;-76
2022/07/12 12:14:06;;;;;;;7.82;0.90;;;;;;;;;;10313127;28;20031;-76
2022/07/12 12:19:10;;;;;;;1.43;1.27;;;;;;;;;;10313113;28;20411;-75
2022/07/12 12:24:10;;;;;;;1.30;0.80;;;;;;;;;;10312641;28;20261;-76
2022/07/12 12:29:11;;;;;;;4.22;0.82;;;;;;;;;;10330026;28;20117;-73
2022/07/12 12:34:11;;;;;;;3.75;0.80;;;;;;;;;;10329954;28;20467;-75
2022/07/12 12:39:12;;;;;;;4.28;0.80;;;;;;;;;;10312563;28;20113;-75
2022/07/12 12:44:15;;;;;;;1.33;1.00;;;;;;;;;;10312569;28;20115;-72
2022/07/12 12:49:15;;;;;;;2.40;1.00;;;;;;;;;;10329629;28;20029;-74
2022/07/12 12:54:29;;;;;;;1.90;0.80;;;;;;;;;;10329919;28;20026;-74
2022/07/12 12:59:30;;;;;;;1.65;0.73;;;;;;;;;;10329634;28;20557;-74
2022/07/12 13:04:30;;;;;;;2.20;0.75;;;;;;;;;;10316335;28;20058;-74
2022/07/12 13:09:31;;;;;;;2.25;0.90;;;;;;;;;;10319630;28;20552;-74
2022/07/12 13:14:31;;;;;;;3.20;0.77;;;;;;;;;;10319348;28;20037;-73
2022/07/12 13:19:31;;;;;;;1.60;0.88;;;;;;;;;;10319173;28;20022;-74
2022/07/12 13:24:32;;;;;;;2.20;1.00;;;;;;;;;;10319017;28;20241;-74
2022/07/12 13:29:33;;;;;;;1.98;0.80;;;;;;;;;;10336280;28;20039;-73
2022/07/12 13:34:33;;;;;;;3.03;0.60;;;;;;;;;;10318165;28;20065;-75
2022/07/12 13:44:53;;;;;;;4.82;1.00;;;;;;;;;;10336636;28;20066;-76
2022/07/12 13:49:53;;;;;;;1.60;1.00;;;;;;;;;;10318061;28;20074;-76
2022/07/12 13:54:54;;;;;;;2.17;1.03;;;;;;;;;;10317618;28;20492;-75
2022/07/12 13:59:56;;;;;;;1.67;0.80;;;;;;;;;;10335381;28;20041;-75
2022/07/12 14:04:57;;;;;;;4.88;1.10;;;;;;;;;;10317458;28;20038;-75
2022/07/12 14:09:59;;;;;;;2.67;1.05;;;;;;;;;;10317755;28;20037;-75
2022/07/12 14:20:12;;;;;;;1.15;0.75;;;;;;;;;;10335306;28;20030;-74
2022/07/12 14:25:13;;;;;;;1.63;0.90;;;;;;;;;;10317182;28;20112;-75
2022/07/12 14:30:13;;;;;;;4.00;1.17;;;;;;;;;;10317187;28;20089;-75
2022/07/12 14:35:14;;;;;;;6.10;0.97;;;;;;;;;;10316206;28;20062;-74
2022/07/12 14:40:14;;;;;;;2.50;1.00;;;;;;;;;;10316128;28;20035;-74
2022/07/12 14:45:15;;;;;;;1.60;0.70;;;;;;;;;;10333715;28;20038;-74
2022/07/12 14:50:15;;;;;;;2.15;1.00;;;;;;;;;;10333193;28;20030;-74
2022/07/12 14:55:15;;;;;;;8.83;1.20;;;;;;;;;;10315677;28;20518;-76
2022/07/12 15:00:16;;;;;;;1.70;0.93;;;;;;;;;;10333058;28;20030;-75
2022/07/12 15:05:16;;;;;;;3.57;0.83;;;;;;;;;;10314973;28;20042;-74
2022/07/12 15:10:16;;;;;;;4.50;1.13;;;;;;;;;;10314846;28;20041;-74
2022/07/12 15:15:17;;;;;;;2.88;1.13;;;;;;;;;;10345485;28;20046;-75
2022/07/12 15:20:17;;;;;;;3.55;0.70;;;;;;;;;;10331970;28;20041;-74
2022/07/12 15:25:17;;;;;;;2.97;1.40;;;;;;;;;;10313500;28;20068;-75
2022/07/12 15:30:17;;;;;;;3.13;1.10;;;;;;;;;;10314461;28;20034;-74
2022/07/12 15:35:18;;;;;;;6.47;1.42;;;;;;;;;;10331411;28;20046;-75
2022/07/12 15:40:18;;;;;;;3.58;1.33;;;;;;;;;;10314034;28;20033;-75
2022/07/12 15:45:19;;;;;;;4.43;1.27;;;;;;;;;;10313602;28;20037;-75
2022/07/12 15:50:19;;;;;;;2.97;1.43;;;;;;;;;;10313358;28;20125;-75
2022/07/12 15:55:19;;;;;;;1.40;1.10;;;;;;;;;;10313197;28;20034;-75
2022/07/12 16:00:19;;;;;;;2.65;1.33;;;;;;;;;;10313487;28;20035;-76
2022/07/12 16:05:20;;;;;;;5.37;1.20;;;;;;;;;;10312801;28;20034;-75
2022/07/12 16:10:21;;;;;;;2.97;0.82;;;;;;;;;;10312768;28;20055;-75
2022/07/12 16:15:22;;;;;;;3.63;0.95;;;;;;;;;;10312772;28;20043;-74
2022/07/12 16:20:22;;;;;;;3.88;1.48;;;;;;;;;;10313075;28;20112;-75
2022/07/12 16:25:22;;;;;;;4.83;1.10;;;;;;;;;;10312926;28;20042;-75
2022/07/12 16:30:23;;;;;;;1.90;1.35;;;;;;;;;;10312772;28;20030;-75
2022/07/12 16:35:24;;;;;;;4.07;1.35;;;;;;;;;;10312526;28;20547;-75
2022/07/12 16:40:24;;;;;;;4.75;1.73;;;;;;;;;;10318329;28;20078;-75
2022/07/12 16:45:28;;;;;;;2.92;1.45;;;;;;;;;;10321294;28;20158;-75
2022/07/12 16:50:28;;;;;;;2.15;1.20;;;;;;;;;;10320542;28;20037;-75
2022/07/12 16:55:30;;;;;;;5.57;1.42;;;;;;;;;;10320357;28;20058;-77
2022/07/12 17:00:30;;;;;;;5.55;1.42;;;;;;;;;;10320660;28;20047;-75
2022/07/12 17:05:30;;;;;;;2.08;1.17;;;;;;;;;;10319864;28;20094;-76
2022/07/12 17:10:31;;;;;;;5.47;1.63;;;;;;;;;;10319749;28;20030;-75
2022/07/12 17:15:31;;;;;;;2.67;1.50;;;;;;;;;;10337019;28;20076;-74
2022/07/12 17:20:31;;;;;;;5.07;1.58;;;;;;;;;;10319451;28;20026;-74
2022/07/12 17:25:33;;;;;;;9.50;1.63;;;;;;;;;;10319319;28;20030;-74
2022/07/12 17:30:34;;;;;;;2.83;2.00;;;;;;;;;;10319312;28;20036;-76
2022/07/12 17:35:39;;;;;;;4.72;1.80;;;;;;;;;;10336401;28;20030;-77
2022/07/12 17:40:39;;;;;;;2.72;1.77;;;;;;;;;;10336185;28;20049;-74
2022/07/12 17:45:39;;;;;;;4.47;2.20;;;;;;;;;;10336223;28;20036;-75
2022/07/12 17:50:39;;;;;;;3.58;2.17;;;;;;;;;;10317762;28;20023;-74
2022/07/12 17:55:40;;;;;;;3.78;1.80;;;;;;;;;;10318197;28;20043;-74
2022/07/12 18:00:42;;;;;;;2.73;2.07;;;;;;;;;;10335649;28;20043;-75
2022/07/12 18:05:43;;;;;;;2.78;2.08;;;;;;;;;;10317572;28;20405;-74
2022/07/12 18:10:44;;;;;;;5.03;2.28;;;;;;;;;;10317604;28;20027;-74
2022/07/12 18:15:44;;;;;;;8.32;2.38;;;;;;;;;;10317261;28;20038;-76
2022/07/12 18:20:51;;;;;;;5.33;2.47;;;;;;;;;;10316842;28;20129;-74
2022/07/12 18:25:52;;;;;;;6.40;2.10;;;;;;;;;;10345749;28;20444;-75
2022/07/12 18:30:52;;;;;;;4.75;2.17;;;;;;;;;;10316756;28;20026;-74
2022/07/12 18:35:52;;;;;;;6.32;2.30;;;;;;;;;;10316483;28;20026;-75
2022/07/12 18:40:53;;;;;;;6.20;2.40;;;;;;;;;;10316552;28;20122;-75
2022/07/12 18:45:53;;;;;;;5.38;2.58;;;;;;;;;;10316397;28;20026;-74
2022/07/12 18:50:53;;;;;;;3.30;2.00;;;;;;;;;;10333548;28;20088;-74
2022/07/12 18:55:54;;;;;;;5.20;2.30;;;;;;;;;;10333329;28;20030;-77
2022/07/12 19:00:54;;;;;;;3.40;2.25;;;;;;;;;;10314813;28;20293;-75
2022/07/12 19:05:54;;;;;;;5.32;2.50;;;;;;;;;;10316311;28;20093;-74
2022/07/12 19:10:55;;;;;;;5.32;2.95;;;;;;;;;;10315523;28;20566;-74
2022/07/12 19:15:55;;;;;;;4.35;2.67;;;;;;;;;;10315317;28;20516;-73
2022/07/12 19:20:56;;;;;;;5.13;2.45;;;;;;;;;;10314851;28;20139;-75
2022/07/12 19:25:56;;;;;;;4.38;2.22;;;;;;;;;;10314719;28;20117;-76
2022/07/12 19:30:57;;;;;;;4.20;2.30;;;;;;;;;;10314790;28;20100;-74
2022/07/12 19:35:57;;;;;;;6.93;2.30;;;;;;;;;;10332060;28;20034;-75
2022/07/12 19:40:58;;;;;;;3.25;2.20;;;;;;;;;;10331722;28;20439;-74
2022/07/12 19:45:59;;;;;;;3.78;1.98;;;;;;;;;;10314361;28;20096;-75
2022/07/12 19:50:59;;;;;;;7.47;2.17;;;;;;;;;;10313992;28;20508;-75
2022/07/12 19:55:59;;;;;;;6.03;2.55;;;;;;;;;;10314280;28;20070;-75
2022/07/12 20:01:00;;;;;;;4.80;2.57;;;;;;;;;;10313723;28;20046;-75
2022/07/12 20:06:01;;;;;;;4.68;3.10;;;;;;;;;;10313349;28;20046;-75
2022/07/12 20:11:01;;;;;;;7.55;3.28;;;;;;;;;;10313474;28;20046;-77
2022/07/12 20:16:02;;;;;;;5.77;3.57;;;;;;;;;;10313322;28;20034;-74
2022/07/12 20:21:02;;;;;;;4.47;2.87;;;;;;;;;;10313062;28;20266;-75
2022/07/12 20:26:02;;;;;;;6.68;2.42;;;;;;;;;;10313452;28;20042;-75
2022/07/12 20:31:03;;;;;;;6.05;2.35;;;;;;;;;;10313298;28;20065;-74
2022/07/12 20:36:04;;;;;;;2.53;1.77;;;;;;;;;;10312585;28;20045;-74
2022/07/12 20:41:04;;;;;;;3.25;2.70;;;;;;;;;;10312653;28;20042;-75
2022/07/12 20:46:04;;;;;;;3.10;2.60;;;;;;;;;;10330040;28;20070;-75
2022/07/12 20:51:05;;;;;;;11.80;3.60;;;;;;;;;;10312080;28;20038;-75
2022/07/12 20:56:06;;;;;;;12.00;2.38;;;;;;;;;;10312174;28;20185;-74
2022/07/12 21:01:08;;;;;;;2.83;2.03;;;;;;;;;;10329610;28;20042;-75
2022/07/12 21:06:08;;;;;;;4.85;2.45;;;;;;;;;;10312199;28;20089;-75
2022/07/12 21:11:08;;;;;;;2.40;2.07;;;;;;;;;;10312274;28;20041;-74
2022/07/12 21:16:09;;;;;;;4.80;2.00;;;;;;;;;;10312127;28;20385;-75
2022/07/12 21:21:09;;;;;;;2.53;2.00;;;;;;;;;;10312688;28;20034;-75
2022/07/12 21:26:11;;;;;;;3.90;1.73;;;;;;;;;;10316876;28;20041;-75
2022/07/12 21:31:11;;;;;;;3.83;1.90;;;;;;;;;;10319855;28;20549;-74
2022/07/12 21:36:11;;;;;;;4.30;1.70;;;;;;;;;;10319129;28;20117;-76
2022/07/12 21:41:12;;;;;;;4.55;1.75;;;;;;;;;;10319207;28;20026;-74
2022/07/12 21:46:12;;;;;;;6.28;1.80;;;;;;;;;;10336495;28;20057;-74
2022/07/12 21:51:12;;;;;;;4.18;1.88;;;;;;;;;;10318627;28;20038;-76
2022/07/12 21:56:13;;;;;;;8.63;2.13;;;;;;;;;;10318447;28;20045;-75
2022/07/12 22:01:13;;;;;;;10.07;2.30;;;;;;;;;;10318416;28;20054;-74
2022/07/12 22:06:13;;;;;;;7.65;4.57;;;;;;;;;;10318148;28;20040;-76
2022/07/12 22:11:13;;;;;;;8.25;2.72;;;;;;;;;;10317906;28;20040;-75
2022/07/12 22:16:14;;;;;;;2.83;2.05;;;;;;;;;;10318195;28;20049;-76
2022/07/12 22:21:14;;;;;;;4.18;2.05;;;;;;;;;;10317940;28;20101;-75
2022/07/12 22:26:14;;;;;;;3.85;2.40;;;;;;;;;;10334892;28;20500;-75
2022/07/12 22:31:14;;;;;;;5.40;3.05;;;;;;;;;;10334792;28;20539;-75
2022/07/12 22:36:15;;;;;;;5.30;2.58;;;;;;;;;;10316740;28;20038;-75
2022/07/12 22:41:15;;;;;;;4.15;2.85;;;;;;;;;;10316752;28;20050;-75
2022/07/12 22:46:15;;;;;;;5.70;2.90;;;;;;;;;;10316836;28;20129;-76
2022/07/12 22:56:34;;;;;;;5.70;2.60;;;;;;;;;;10334725;28;20416;-75
2022/07/12 23:01:35;;;;;;;3.42;2.88;;;;;;;;;;10316129;28;20046;-77
2022/07/12 23:06:36;;;;;;;4.65;2.70;;;;;;;;;;10315708;28;20101;-75
2022/07/12 23:11:36;;;;;;;3.92;2.60;;;;;;;;;;10333309;28;20057;-75
2022/07/12 23:16:37;;;;;;;5.80;3.10;;;;;;;;;;10318900;28;20129;-75
2022/07/12 23:21:37;;;;;;;4.80;2.85;;;;;;;;;;10315506;28;20360;-76
2022/07/12 23:26:37;;;;;;;4.05;2.72;;;;;;;;;;10315021;28;20133;-75
2022/07/12 23:31:37;;;;;;;5.30;2.53;;;;;;;;;;10314897;28;20419;-75
2022/07/12 23:36:38;;;;;;;4.07;2.85;;;;;;;;;;10314726;28;20459;-76
2022/07/12 23:41:38;;;;;;;3.38;2.17;;;;;;;;;;10314868;28;20120;-74
2022/07/12 23:46:38;;;;;;;5.13;2.63;;;;;;;;;;10314096;28;20113;-75
2022/07/12 23:51:39;;;;;;;6.72;2.30;;;;;;;;;;10314291;28;20038;-75
2022/07/12 23:56:39;;;;;;;9.70;2.08;;;;;;;;;;10314227;28;20504;-75
